Time;durP1;ratioP1;P1;durP2;ratioP2;P2;SDS_P1;SDS_P2;PMS_P1;PMS_P2;Temp;Humidity;BMP_temperature;BMP_pressure;BME280_temperature;BME280_humidity;BME280_pressure;Samples;Min_cycle;Max_cycle;Signal;HPM_P1;HPM_P2
2023/03/15 00:00:32;;;;;;;;;15.00;14.00;23.00;39.20;;;;;;109603;1260;49735;-65
2023/03/15 00:03:17;;;;;;;;;16.00;15.00;23.00;39.40;;;;;;109609;1260;49888;-66
2023/03/15 00:05:45;;;;;;;;;20.00;17.00;23.00;39.30;;;;;;109607;1259;46210;-67
2023/03/15 00:08:12;;;;;;;;;16.00;13.00;23.10;39.20;;;;;;109654;1255;56488;-65
2023/03/15 00:10:43;;;;;;;;;18.50;16.50;23.10;39.40;;;;;;109620;1255;53542;-65
2023/03/15 00:13:10;;;;;;;;;18.00;17.00;23.10;39.50;;;;;;109609;1255;49750;-65
2023/03/15 00:15:44;;;;;;;;;14.00;13.00;23.10;39.40;;;;;;109580;1255;49506;-65
2023/03/15 00:18:10;;;;;;;;;15.00;14.00;23.10;39.40;;;;;;109672;1259;46867;-64
2023/03/15 00:20:36;;;;;;;;;16.50;13.50;23.10;39.40;;;;;;109572;1255;56269;-64
2023/03/15 00:23:03;;;;;;;;;15.00;14.00;23.20;39.50;;;;;;109722;1257;54497;-65
2023/03/15 00:25:29;;;;;;;;;20.50;16.50;23.20;39.50;;;;;;109647;1260;49220;-65
2023/03/15 00:27:55;;;;;;;;;21.50;18.00;23.20;39.40;;;;;;109577;1255;50694;-64
2023/03/15 00:30:22;;;;;;;;;17.50;15.00;23.20;39.40;;;;;;109676;1255;47111;-65
2023/03/15 00:32:48;;;;;;;;;22.00;19.00;23.20;39.50;;;;;;109653;1257;57030;-65
2023/03/15 00:35:17;;;;;;;;;17.50;15.00;23.20;39.50;;;;;;109576;1255;54217;-65
2023/03/15 00:37:43;;;;;;;;;22.50;16.50;23.20;39.50;;;;;;109572;1257;49582;-66
2023/03/15 00:40:11;;;;;;;;;16.00;14.00;23.20;39.40;;;;;;109619;1255;49524;-65
2023/03/15 00:42:38;;;;;;;;;20.00;15.00;23.20;39.70;;;;;;109698;1260;46390;-65
2023/03/15 00:45:05;;;;;;;;;17.00;15.00;23.10;39.40;;;;;;109577;1257;57160;-65
2023/03/15 00:47:31;;;;;;;;;21.00;15.00;23.20;39.50;;;;;;109681;1258;54341;-64
2023/03/15 00:49:58;;;;;;;;;16.75;15.25;23.10;39.50;;;;;;109764;1259;49649;-64
2023/03/15 00:52:24;;;;;;;;;17.00;15.00;23.10;39.40;;;;;;109751;1255;48892;-65
2023/03/15 00:54:53;;;;;;;;;16.00;15.00;23.10;39.40;;;;;;109578;1259;46154;-64
2023/03/15 00:57:20;;;;;;;;;16.00;13.00;23.10;39.30;;;;;;109610;1255;56925;-65
2023/03/15 00:59:47;;;;;;;;;16.00;14.50;23.10;39.30;;;;;;109690;1256;54640;-66
2023/03/15 01:02:13;;;;;;;;;16.50;15.00;23.10;39.30;;;;;;109611;1258;49855;-66
2023/03/15 01:04:39;;;;;;;;;19.00;15.50;23.10;39.50;;;;;;109605;1260;50186;-65
2023/03/15 01:07:06;;;;;;;;;19.00;14.00;23.10;39.30;;;;;;109572;1255;46651;-66
2023/03/15 01:09:32;;;;;;;;;18.00;15.50;23.10;39.20;;;;;;109611;1260;56853;-66
2023/03/15 01:11:58;;;;;;;;;21.00;15.00;23.10;39.40;;;;;;109613;1257;54567;-65
2023/03/15 01:14:24;;;;;;;;;17.00;15.33;23.00;39.10;;;;;;109583;1255;49794;-66
2023/03/15 01:16:51;;;;;;;;;19.00;15.50;23.00;39.00;;;;;;109560;1257;49699;-65
2023/03/15 01:19:17;;;;;;;;;16.50;14.50;23.00;39.00;;;;;;109600;1260;47387;-65
2023/03/15 01:21:46;;;;;;;;;17.50;16.00;23.00;39.00;;;;;;109691;1255;56879;-65
2023/03/15 01:24:14;;;;;;;;;19.00;16.50;23.00;39.00;;;;;;109691;1260;53797;-66
2023/03/15 01:26:40;;;;;;;;;14.00;13.00;23.00;39.10;;;;;;109800;1255;50539;-66
2023/03/15 01:29:06;;;;;;;;;19.00;18.00;23.00;38.90;;;;;;109725;1259;49498;-66
2023/03/15 01:31:32;;;;;;;;;19.50;16.00;22.90;39.00;;;;;;109760;1258;46264;-66
2023/03/15 01:33:59;;;;;;;;;17.00;16.00;22.90;38.90;;;;;;109706;1261;57311;-65
2023/03/15 01:36:26;;;;;;;;;18.00;15.00;22.90;38.80;;;;;;109720;1260;53891;-65
2023/03/15 01:38:53;;;;;;;;;15.50;14.50;22.90;38.80;;;;;;109728;1255;49835;-65
2023/03/15 01:41:22;;;;;;;;;21.50;16.50;22.90;39.00;;;;;;109599;1259;49609;-65
2023/03/15 01:43:48;;;;;;;;;21.00;16.00;22.80;38.70;;;;;;109636;1256;46869;-66
2023/03/15 01:46:23;;;;;;;;;18.00;15.00;22.80;38.70;;;;;;109591;1256;56492;-67
2023/03/15 01:49:05;;;;;;;;;17.00;16.00;22.80;38.10;;;;;;109687;1256;54268;-66
2023/03/15 01:51:40;;;;;;;;;19.00;16.00;22.80;38.70;;;;;;109642;1257;49445;-67
2023/03/15 01:54:12;;;;;;;;;18.00;16.00;22.80;38.70;;;;;;109617;1255;49904;-65
2023/03/15 01:56:41;;;;;;;;;20.00;17.00;22.80;38.70;;;;;;109637;1256;46357;-65
2023/03/15 01:59:15;;;;;;;;;20.00;18.00;22.80;38.80;;;;;;109609;1255;56459;-65
2023/03/15 02:01:44;;;;;;;;;18.00;16.00;22.80;38.60;;;;;;109685;1255;54953;-63
2023/03/15 02:04:15;;;;;;;;;18.50;16.50;22.70;38.50;;;;;;109612;1255;49777;-65
2023/03/15 02:06:45;;;;;;;;;16.67;15.00;22.70;38.40;;;;;;109669;1255;49037;-65
2023/03/15 02:09:14;;;;;;;;;18.50;15.00;22.70;38.00;;;;;;109586;1260;46077;-66
2023/03/15 02:11:42;;;;;;;;;16.00;15.00;22.70;38.40;;;;;;109592;1257;56970;-67
2023/03/15 02:14:10;;;;;;;;;16.00;14.50;22.70;38.40;;;;;;109535;1257;53831;-64
2023/03/15 02:16:37;;;;;;;;;19.00;17.00;22.70;38.50;;;;;;109698;1255;50218;-65
2023/03/15 02:19:11;;;;;;;;;15.00;14.00;22.70;38.60;;;;;;109612;1257;49951;-66
2023/03/15 02:21:50;;;;;;;;;18.50;17.00;22.70;38.70;;;;;;109609;1263;46051;-66
2023/03/15 02:24:26;;;;;;;;;18.00;16.50;22.60;38.60;;;;;;109602;1257;57216;-67
2023/03/15 02:26:54;;;;;;;;;18.00;16.50;22.70;38.60;;;;;;109731;1259;54219;-66
2023/03/15 02:29:23;;;;;;;;;18.50;17.00;22.70;38.60;;;;;;109779;1255;49829;-66
2023/03/15 02:31:50;;;;;;;;;18.00;17.00;22.60;38.50;;;;;;109744;1255;49464;-66
2023/03/15 02:34:17;;;;;;;;;17.00;14.00;22.60;38.70;;;;;;109560;1257;46569;-66
2023/03/15 02:36:43;;;;;;;;;18.50;17.00;22.60;38.60;;;;;;109796;1260;57103;-66
2023/03/15 02:39:20;;;;;;;;;20.50;16.00;22.60;38.60;;;;;;109700;1255;53773;-66
2023/03/15 02:41:53;;;;;;;;;18.00;17.00;22.60;38.60;;;;;;109763;1260;50798;-67
2023/03/15 02:44:28;;;;;;;;;23.00;15.00;22.60;38.60;;;;;;109518;1261;49794;-67
2023/03/15 02:46:58;;;;;;;;;19.00;17.00;22.60;38.70;;;;;;109714;1257;46823;-67
2023/03/15 02:49:27;;;;;;;;;21.50;15.50;22.60;38.70;;;;;;109586;1258;56361;-67
2023/03/15 02:51:53;;;;;;;;;19.00;17.00;22.60;38.80;;;;;;109672;1259;54195;-67
2023/03/15 02:54:19;;;;;;;;;20.00;17.00;22.70;38.90;;;;;;109625;1259;49205;-66
2023/03/15 02:56:46;;;;;;;;;20.00;17.00;22.70;38.90;;;;;;109558;1257;49745;-66
2023/03/15 02:59:12;;;;;;;;;22.00;17.00;22.70;38.90;;;;;;109666;1255;46220;-66
2023/03/15 03:01:38;;;;;;;;;18.50;17.00;22.70;39.00;;;;;;109640;1255;56268;-66
2023/03/15 03:04:04;;;;;;;;;17.00;14.50;22.70;39.30;;;;;;109580;1255;53606;-65
2023/03/15 03:06:31;;;;;;;;;21.00;18.00;22.70;39.00;;;;;;109565;1255;49595;-66
2023/03/15 03:08:57;;;;;;;;;20.00;18.33;22.80;39.20;;;;;;109601;1260;49225;-65
2023/03/15 03:11:23;;;;;;;;;22.33;19.00;22.80;39.20;;;;;;109675;1256;47016;-66
2023/03/15 03:13:50;;;;;;;;;18.00;15.50;22.80;39.20;;;;;;109589;1255;56344;-67
2023/03/15 03:16:16;;;;;;;;;16.00;14.00;22.80;39.20;;;;;;109660;1255;54378;-67
2023/03/15 03:18:42;;;;;;;;;23.33;17.00;22.80;39.20;;;;;;109669;1260;49410;-67
2023/03/15 03:21:08;;;;;;;;;19.00;18.00;22.90;39.30;;;;;;109718;1259;50235;-66
2023/03/15 03:23:35;;;;;;;;;18.00;16.00;22.90;39.40;;;;;;109634;1260;46878;-67
2023/03/15 03:26:02;;;;;;;;;19.00;18.00;22.90;39.40;;;;;;109681;1260;56606;-67
2023/03/15 03:28:30;;;;;;;;;20.00;19.00;22.90;39.60;;;;;;109760;1256;53919;-66
2023/03/15 03:30:58;;;;;;;;;21.50;19.00;22.90;39.50;;;;;;109717;1258;49774;-65
2023/03/15 03:33:24;;;;;;;;;21.50;19.00;23.00;39.40;;;;;;109693;1259;49779;-65
2023/03/15 03:35:50;;;;;;;;;17.00;16.00;23.00;39.40;;;;;;109587;1260;46577;-65
2023/03/15 03:38:16;;;;;;;;;20.00;17.00;23.00;39.60;;;;;;109728;1255;56616;-66
2023/03/15 03:40:44;;;;;;;;;;;23.00;39.40;;;;;;109702;1255;54433;-65
2023/03/15 03:43:10;;;;;;;;;20.00;17.50;23.00;39.50;;;;;;109655;1255;49779;-65
2023/03/15 03:45:37;;;;;;;;;18.00;15.00;23.00;39.70;;;;;;109563;1260;50671;-65
2023/03/15 03:48:03;;;;;;;;;18.00;17.00;23.00;39.40;;;;;;109578;1260;46642;-65
2023/03/15 03:50:30;;;;;;;;;19.00;17.00;23.00;39.40;;;;;;109579;1255;56033;-65
2023/03/15 03:52:56;;;;;;;;;18.00;16.00;23.00;39.70;;;;;;109714;1259;53766;-65
2023/03/15 03:55:24;;;;;;;;;19.33;16.67;22.90;39.40;;;;;;109618;1259;49843;-66
2023/03/15 03:57:51;;;;;;;;;22.00;18.00;22.90;39.30;;;;;;109587;1255;49682;-65
2023/03/15 04:00:18;;;;;;;;;21.00;18.00;22.90;39.30;;;;;;109610;1260;46275;-65
2023/03/15 04:02:44;;;;;;;;;17.00;16.00;22.90;39.30;;;;;;109676;1255;57071;-66
2023/03/15 04:05:11;;;;;;;;;24.00;20.33;22.90;39.30;;;;;;109568;1260;54355;-67
2023/03/15 04:07:38;;;;;;;;;19.50;18.50;22.90;39.20;;;;;;109681;1260;49156;-68
2023/03/15 04:10:05;;;;;;;;;21.00;18.00;22.90;39.20;;;;;;109580;1260;49048;-68
2023/03/15 04:12:31;;;;;;;;;22.00;20.50;22.90;38.90;;;;;;109696;1255;46012;-68
2023/03/15 04:14:57;;;;;;;;;17.50;15.00;22.80;38.50;;;;;;109625;1260;56320;-69
2023/03/15 04:17:24;;;;;;;;;23.00;18.00;22.80;38.40;;;;;;109725;1255;54511;-67
2023/03/15 04:19:50;;;;;;;;;20.50;16.50;22.80;38.30;;;;;;109577;1255;50184;-67
2023/03/15 04:22:16;;;;;;;;;24.00;18.00;22.80;38.30;;;;;;109508;1255;49251;-66
2023/03/15 04:24:42;;;;;;;;;23.00;19.00;22.80;38.40;;;;;;109755;1255;46178;-66
2023/03/15 04:27:13;;;;;;;;;20.00;17.00;22.80;38.30;;;;;;109609;1255;56530;-65
2023/03/15 04:29:42;;;;;;;;;20.50;19.00;22.80;38.20;;;;;;109607;1259;53414;-67
2023/03/15 04:32:09;;;;;;;;;18.00;15.67;22.80;38.10;;;;;;109595;1256;51122;-67
2023/03/15 04:34:38;;;;;;;;;19.00;16.00;22.70;37.90;;;;;;109761;1260;49741;-68
2023/03/15 04:37:04;;;;;;;;;22.00;17.00;22.70;37.80;;;;;;109750;1260;46241;-69
2023/03/15 04:39:31;;;;;;;;;21.67;18.67;22.70;37.90;;;;;;109562;1257;57691;-64
2023/03/15 04:41:57;;;;;;;;;20.50;19.00;22.60;37.60;;;;;;109440;1260;53781;-64
2023/03/15 04:44:25;;;;;;;;;17.00;15.50;22.50;37.70;;;;;;109551;1259;49957;-65
2023/03/15 04:46:54;;;;;;;;;17.00;16.00;22.50;37.50;;;;;;109600;1261;49940;-65
2023/03/15 04:49:21;;;;;;;;;19.50;16.50;22.50;37.50;;;;;;109589;1255;46519;-64
2023/03/15 04:51:47;;;;;;;;;17.50;16.50;22.40;37.30;;;;;;109682;1255;56936;-66
2023/03/15 04:54:13;;;;;;;;;20.50;16.50;22.40;37.30;;;;;;109599;1259;54269;-64
2023/03/15 04:56:41;;;;;;;;;19.00;17.00;22.40;37.20;;;;;;109563;1257;50036;-69
2023/03/15 04:59:09;;;;;;;;;19.00;17.00;22.40;37.20;;;;;;109815;1259;50227;-75
2023/03/15 05:01:36;;;;;;;;;20.00;18.00;22.30;38.10;;;;;;109530;1261;46976;-73
2023/03/15 05:04:02;;;;;;;;;20.00;17.00;22.30;39.10;;;;;;109636;1257;57302;-73
2023/03/15 05:06:29;;;;;;;;;22.00;19.00;22.30;39.80;;;;;;109608;1255;54235;-73
2023/03/15 05:08:56;;;;;;;;;18.00;16.00;22.30;39.80;;;;;;109721;1259;49829;-75
2023/03/15 05:11:22;;;;;;;;;21.50;18.00;22.30;39.80;;;;;;109508;1261;49880;-75
2023/03/15 05:13:48;;;;;;;;;16.50;15.50;22.30;39.80;;;;;;109584;1255;46701;-75
2023/03/15 05:16:15;;;;;;;;;18.33;17.33;22.30;39.80;;;;;;109576;1257;56916;-74
2023/03/15 05:18:41;;;;;;;;;22.00;18.00;22.30;40.40;;;;;;109623;1260;53895;-73
2023/03/15 05:21:07;;;;;;;;;23.00;19.00;22.30;42.50;;;;;;109514;1261;49016;-73
2023/03/15 05:23:33;;;;;;;;;24.00;22.00;22.30;42.10;;;;;;109562;1258;49251;-69
2023/03/15 05:26:00;;;;;;;;;21.00;17.00;22.30;41.50;;;;;;109568;1257;45858;-69
2023/03/15 05:28:26;;;;;;;;;24.50;18.00;22.30;41.80;;;;;;109644;1260;57014;-68
2023/03/15 05:30:53;;;;;;;;;22.00;17.00;22.30;42.60;;;;;;109546;1255;54294;-69
2023/03/15 05:33:20;;;;;;;;;23.00;20.00;22.30;41.40;;;;;;109230;1258;49340;-69
2023/03/15 05:35:47;;;;;;;;;58.00;37.00;22.30;41.50;;;;;;109666;1259;50771;-66
2023/03/15 05:38:14;;;;;;;;;45.00;30.00;22.30;46.30;;;;;;109483;1260;46848;-64
2023/03/15 05:40:44;;;;;;;;;49.50;34.50;22.30;46.30;;;;;;109618;1257;56848;-64
2023/03/15 05:43:11;;;;;;;;;61.00;39.00;22.40;45.40;;;;;;110312;1255;55304;-66
2023/03/15 05:45:37;;;;;;;;;62.00;42.00;22.30;44.80;;;;;;109809;1256;49800;-65
2023/03/15 05:48:04;;;;;;;;;63.00;43.00;22.40;45.00;;;;;;109751;1259;49989;-65
2023/03/15 05:50:32;;;;;;;;;63.50;41.50;22.40;45.50;;;;;;109758;1260;45903;-68
2023/03/15 05:52:58;;;;;;;;;56.00;37.50;22.40;45.60;;;;;;109810;1259;56051;-67
2023/03/15 05:55:25;;;;;;;;;50.50;38.00;22.40;45.80;;;;;;109585;1260;54206;-68
2023/03/15 05:57:51;;;;;;;;;46.00;32.00;22.40;45.70;;;;;;109693;1255;49786;-67
2023/03/15 06:00:18;;;;;;;;;45.00;31.00;22.40;45.20;;;;;;109528;1255;50561;-68
2023/03/15 06:02:45;;;;;;;;;49.00;32.50;22.40;45.10;;;;;;109844;1255;47518;-68
2023/03/15 06:05:12;;;;;;;;;45.00;29.00;22.40;45.00;;;;;;109648;1257;56726;-69
2023/03/15 06:07:38;;;;;;;;;45.00;29.50;22.50;44.70;;;;;;109654;1257;53616;-70
2023/03/15 06:10:05;;;;;;;;;46.50;34.50;22.50;44.40;;;;;;109689;1256;50109;-66
2023/03/15 06:12:32;;;;;;;;;40.00;28.00;22.60;44.50;;;;;;109677;1255;49350;-69
2023/03/15 06:14:58;;;;;;;;;44.67;34.00;22.60;43.90;;;;;;109603;1258;46055;-66
2023/03/15 06:17:24;;;;;;;;;40.00;31.00;22.60;43.50;;;;;;109602;1259;56192;-65
2023/03/15 06:19:50;;;;;;;;;41.00;29.00;22.70;43.20;;;;;;109589;1259;53676;-68
2023/03/15 06:22:19;;;;;;;;;34.50;29.00;22.70;42.60;;;;;;109759;1255;50289;-66
2023/03/15 06:24:46;;;;;;;;;36.33;29.00;22.80;42.60;;;;;;109586;1255;49211;-66
2023/03/15 06:27:12;;;;;;;;;38.33;28.33;22.80;42.40;;;;;;109597;1259;46024;-66
2023/03/15 06:29:38;;;;;;;;;37.00;28.00;22.90;42.00;;;;;;109812;1260;57115;-67
2023/03/15 06:32:05;;;;;;;;;40.00;27.00;22.90;41.60;;;;;;109691;1260;53425;-66
2023/03/15 06:34:31;;;;;;;;;36.00;29.00;23.00;41.70;;;;;;109577;1260;49892;-64
2023/03/15 06:36:58;;;;;;;;;39.50;25.00;23.00;41.10;;;;;;109594;1257;50661;-64
2023/03/15 06:39:24;;;;;;;;;33.00;27.67;23.00;41.10;;;;;;109600;1260;46593;-65
2023/03/15 06:41:52;;;;;;;;;36.50;27.50;23.10;41.20;;;;;;109668;1259;56948;-66
2023/03/15 06:44:19;;;;;;;;;26.00;22.00;23.10;41.10;;;;;;109622;1255;53588;-65
2023/03/15 06:46:45;;;;;;;;;32.00;25.00;23.10;40.70;;;;;;109632;1256;49947;-67
2023/03/15 06:49:12;;;;;;;;;30.00;23.00;23.20;40.70;;;;;;109577;1262;49058;-67
2023/03/15 06:51:38;;;;;;;;;35.00;25.00;23.20;40.50;;;;;;109644;1255;46921;-68
2023/03/15 06:54:04;;;;;;;;;32.33;28.00;23.20;40.30;;;;;;109614;1257;57808;-70
2023/03/15 06:56:34;;;;;;;;;34.00;27.00;23.30;40.30;;;;;;109684;1255;54367;-66
2023/03/15 06:59:00;;;;;;;;;25.50;23.00;23.30;40.30;;;;;;109934;1259;49337;-67
2023/03/15 07:01:27;;;;;;;;;26.00;23.00;23.30;39.90;;;;;;109710;1255;49794;-69
2023/03/15 07:03:53;;;;;;;;;26.33;24.00;23.40;40.00;;;;;;109710;1260;46360;-66
2023/03/15 07:06:19;;;;;;;;;28.50;23.00;23.40;40.30;;;;;;109526;1259;129027;-67
2023/03/15 07:08:45;;;;;;;;;22.00;21.00;23.40;40.20;;;;;;109711;1260;54689;-69
2023/03/15 07:11:12;;;;;;;;;28.00;20.00;23.40;40.10;;;;;;109737;1255;50118;-69
2023/03/15 07:13:38;;;;;;;;;29.00;22.33;23.40;40.00;;;;;;109745;1255;49126;-65
2023/03/15 07:16:05;;;;;;;;;27.00;21.00;23.40;39.80;;;;;;109794;1258;47109;-66
2023/03/15 07:18:34;;;;;;;;;26.00;21.00;23.40;39.70;;;;;;109858;1258;57263;-67
2023/03/15 07:21:01;;;;;;;;;31.00;23.00;23.50;39.60;;;;;;109884;1257;53857;-66
2023/03/15 07:23:29;;;;;;;;;36.00;25.00;23.50;39.50;;;;;;109778;1259;49904;-67
2023/03/15 07:25:56;;;;;;;;;37.00;26.00;23.50;39.30;;;;;;109684;1255;50563;-66
2023/03/15 07:28:24;;;;;;;;;27.00;20.00;23.50;39.60;;;;;;109620;1255;46065;-65
2023/03/15 07:30:55;;;;;;;;;22.67;20.00;23.50;39.50;;;;;;109925;1260;56943;-66
2023/03/15 07:33:22;;;;;;;;;25.50;22.00;23.50;39.30;;;;;;109716;1260;54497;-65
2023/03/15 07:35:52;;;;;;;;;22.00;20.00;23.50;39.30;;;;;;109664;1259;50007;-65
2023/03/15 07:38:23;;;;;;;;;21.00;17.00;23.60;39.60;;;;;;109703;1255;49677;-68
2023/03/15 07:40:49;;;;;;;;;24.00;20.00;23.50;39.30;;;;;;109663;1260;46811;-66
2023/03/15 07:43:16;;;;;;;;;28.00;22.00;23.50;39.20;;;;;;109813;1257;56159;-65
2023/03/15 07:45:42;;;;;;;;;20.00;18.50;23.50;39.00;;;;;;109752;1260;53676;-65
2023/03/15 07:48:09;;;;;;;;;28.00;21.00;23.50;39.00;;;;;;109974;1260;49359;-67
2023/03/15 07:50:35;;;;;;;;;24.67;22.00;23.50;38.90;;;;;;109936;1257;49129;-65
2023/03/15 07:53:03;;;;;;;;;19.00;17.00;23.50;38.90;;;;;;109712;1259;46816;-65
2023/03/15 07:55:33;;;;;;;;;;;23.50;38.50;;;;;;109783;1255;57122;-65
2023/03/15 07:57:59;;;;;;;;;30.00;21.00;23.60;39.00;;;;;;109858;1255;54158;-67
2023/03/15 08:00:26;;;;;;;;;28.00;21.50;23.60;39.00;;;;;;109798;1255;48792;-67
2023/03/15 08:02:52;;;;;;;;;24.00;22.00;23.60;38.90;;;;;;109728;1257;49934;-67
2023/03/15 08:05:19;;;;;;;;;25.00;21.00;23.60;38.90;;;;;;109688;1255;47291;-67
2023/03/15 08:07:47;;;;;;;;;25.50;22.50;23.60;38.70;;;;;;109898;1255;57035;-70
2023/03/15 08:10:14;;;;;;;;;29.00;20.00;23.60;38.70;;;;;;109743;1255;55048;-68
2023/03/15 08:12:41;;;;;;;;;27.50;22.00;23.60;39.00;;;;;;109863;1255;50649;-65
2023/03/15 08:15:12;;;;;;;;;28.00;22.00;23.60;38.80;;;;;;109888;1258;49337;-64
2023/03/15 08:17:40;;;;;;;;;26.00;22.00;23.70;39.20;;;;;;109662;1254;46527;-66
2023/03/15 08:20:13;;;;;;;;;22.33;20.00;23.70;39.10;;;;;;109904;1254;56459;-67
2023/03/15 08:22:45;;;;;;;;;25.00;21.00;23.70;38.70;;;;;;109889;1255;53736;-68
2023/03/15 08:25:14;;;;;;;;;26.00;23.00;23.70;39.10;;;;;;109714;1255;49306;-67
2023/03/15 08:27:41;;;;;;;;;22.00;19.00;23.70;39.10;;;;;;109718;1259;49724;-66
2023/03/15 08:30:11;;;;;;;;;21.50;20.00;23.70;38.50;;;;;;109815;1255;46303;-67
2023/03/15 08:32:41;;;;;;;;;20.33;17.67;23.70;38.20;;;;;;109880;1255;56881;-71
2023/03/15 08:35:11;;;;;;;;;27.00;22.50;23.70;38.40;;;;;;109791;1255;54090;-67
2023/03/15 08:37:38;;;;;;;;;24.00;21.00;23.70;38.60;;;;;;109817;1255;49601;-66
2023/03/15 08:40:09;;;;;;;;;24.00;21.00;23.70;38.80;;;;;;109787;1255;49673;-67
2023/03/15 08:42:36;;;;;;;;;24.00;21.50;23.70;38.60;;;;;;109742;1260;46854;-65
2023/03/15 08:45:05;;;;;;;;;25.50;23.00;23.70;38.30;;;;;;109790;1256;57073;-69
2023/03/15 08:47:36;;;;;;;;;25.00;21.00;23.70;38.70;;;;;;109891;1259;54420;-68
2023/03/15 08:50:04;;;;;;;;;24.50;20.00;23.70;38.20;;;;;;109785;1257;50303;-66
2023/03/15 08:52:31;;;;;;;;;24.50;21.00;23.70;38.20;;;;;;109829;1258;50192;-68
2023/03/15 08:54:57;;;;;;;;;24.00;20.00;23.70;38.00;;;;;;109848;1257;45910;-67
2023/03/15 08:57:28;;;;;;;;;24.00;22.50;23.70;37.90;;;;;;109777;1256;56166;-66
2023/03/15 08:59:55;;;;;;;;;26.00;21.00;23.70;38.20;;;;;;109703;1255;54143;-67
2023/03/15 09:02:22;;;;;;;;;24.00;20.50;23.70;38.00;;;;;;109827;1259;49341;-66
2023/03/15 09:04:48;;;;;;;;;21.00;18.00;23.70;38.00;;;;;;109618;1255;49251;-69
2023/03/15 09:07:14;;;;;;;;;24.00;20.67;23.70;38.40;;;;;;109625;1259;45809;-67
2023/03/15 09:09:41;;;;;;;;;23.00;20.00;23.70;38.20;;;;;;109647;1256;57495;-68
2023/03/15 09:12:07;;;;;;;;;26.00;22.50;23.70;37.90;;;;;;109783;1255;54246;-67
2023/03/15 09:14:33;;;;;;;;;27.00;21.00;23.70;38.10;;;;;;109613;1261;49556;-68
2023/03/15 09:17:00;;;;;;;;;25.33;22.00;23.70;38.60;;;;;;109851;1257;49997;-70
2023/03/15 09:19:26;;;;;;;;;26.00;23.00;23.70;37.90;;;;;;109905;1258;47499;-65
2023/03/15 09:21:52;;;;;;;;;23.00;19.00;23.70;37.60;;;;;;109874;1258;56944;-68
2023/03/15 09:24:18;;;;;;;;;25.00;23.00;23.70;37.80;;;;;;109854;1256;54224;-68
2023/03/15 09:26:45;;;;;;;;;27.67;23.67;23.70;37.50;;;;;;109880;1255;49393;-69
2023/03/15 09:29:11;;;;;;;;;28.00;22.00;23.70;37.50;;;;;;109616;1255;49353;-67
2023/03/15 09:31:37;;;;;;;;;28.00;20.00;23.70;37.80;;;;;;109811;1260;45983;-70
2023/03/15 09:34:04;;;;;;;;;27.00;22.00;23.60;37.70;;;;;;109747;1255;56819;-70
2023/03/15 09:36:31;;;;;;;;;24.50;22.00;23.60;37.10;;;;;;109846;1257;54691;-71
2023/03/15 09:38:59;;;;;;;;;25.00;23.00;23.70;37.50;;;;;;109864;1256;49923;-73
2023/03/15 09:41:40;;;;;;;;;22.00;20.00;23.60;37.30;;;;;;109759;1260;50051;-71
2023/03/15 09:44:38;;;;;;;;;24.75;21.50;23.60;37.20;;;;;;109623;1255;46654;-66
2023/03/15 09:47:42;;;;;;;;;22.50;20.00;23.60;37.20;;;;;;109637;1257;57136;-67
2023/03/15 09:50:25;;;;;;;;;25.50;21.50;23.60;37.30;;;;;;109609;1255;53796;-68
2023/03/15 09:52:55;;;;;;;;;20.00;18.50;23.60;37.20;;;;;;109634;1255;49313;-71
2023/03/15 09:55:23;;;;;;;;;21.50;18.00;23.60;37.10;;;;;;109659;1260;49469;-65
2023/03/15 09:58:03;;;;;;;;;22.00;20.00;23.60;37.20;;;;;;109624;1262;47947;-67
2023/03/15 10:00:45;;;;;;;;;23.00;20.00;23.60;37.10;;;;;;109633;1260;57618;-67
2023/03/15 10:03:19;;;;;;;;;23.00;22.00;23.60;36.90;;;;;;109599;1261;54037;-66
2023/03/15 10:05:53;;;;;;;;;29.00;24.50;23.60;36.90;;;;;;109667;1259;49254;-67
2023/03/15 10:08:20;;;;;;;;;22.00;20.00;23.60;36.90;;;;;;109614;1261;50258;-70
2023/03/15 10:10:52;;;;;;;;;22.00;20.00;23.70;37.20;;;;;;109658;1260;46656;-69
2023/03/15 10:13:36;;;;;;;;;23.00;21.00;23.70;37.70;;;;;;109813;1257;56108;-69
2023/03/15 10:16:09;;;;;;;;;22.50;21.00;23.70;37.20;;;;;;109743;1257;54729;-70
2023/03/15 10:18:53;;;;;;;;;21.00;19.00;23.70;36.90;;;;;;109809;1258;49378;-72
2023/03/15 10:21:38;;;;;;;;;19.00;18.00;23.80;36.90;;;;;;109839;1254;49573;-69
2023/03/15 10:24:14;;;;;;;;;22.67;19.00;23.80;37.20;;;;;;109689;1257;46969;-69
2023/03/15 10:26:43;;;;;;;;;22.00;19.00;23.80;36.90;;;;;;109916;1255;57024;-68
2023/03/15 10:29:15;;;;;;;;;25.00;24.00;23.80;36.60;;;;;;109862;1256;54042;-68
2023/03/15 10:31:45;;;;;;;;;22.00;20.00;23.80;36.70;;;;;;109683;1258;49242;-68
2023/03/15 10:34:12;;;;;;;;;;;23.80;36.00;;;;;;109668;1259;49401;-66
2023/03/15 10:36:52;;;;;;;;;25.00;21.50;23.80;36.40;;;;;;109801;1255;47330;-67
2023/03/15 10:39:20;;;;;;;;;21.00;20.00;23.80;36.60;;;;;;109636;1260;56556;-68
2023/03/15 10:41:48;;;;;;;;;21.50;19.50;23.80;36.80;;;;;;109861;1254;54002;-69
2023/03/15 10:44:20;;;;;;;;;23.00;21.00;23.80;36.80;;;;;;109763;1260;49934;-67
2023/03/15 10:47:01;;;;;;;;;28.50;25.50;23.70;36.70;;;;;;109615;1257;49869;-71
2023/03/15 10:49:38;;;;;;;;;25.00;24.00;23.80;37.00;;;;;;109703;1260;46781;-71
2023/03/15 10:52:05;;;;;;;;;29.00;23.00;23.80;37.10;;;;;;109815;1258;56357;-72
2023/03/15 10:54:33;;;;;;;;;22.00;19.00;23.80;37.10;;;;;;109886;1259;53723;-74
2023/03/15 10:57:12;;;;;;;;;23.00;21.00;23.80;37.30;;;;;;109715;1257;49901;-71
2023/03/15 10:59:52;;;;;;;;;;;23.80;37.60;;;;;;109685;1255;49840;-72
2023/03/15 11:02:22;;;;;;;;;24.50;20.75;23.80;37.60;;;;;;109794;1260;46169;-71
2023/03/15 11:05:00;;;;;;;;;23.00;20.00;23.80;37.40;;;;;;109978;1255;56381;-71
2023/03/15 11:07:27;;;;;;;;;28.50;25.00;23.80;37.50;;;;;;109780;1255;54376;-69
2023/03/15 11:09:59;;;;;;;;;24.00;22.50;23.90;37.50;;;;;;109613;1255;49936;-71
2023/03/15 11:12:29;;;;;;;;;;;23.80;37.60;;;;;;109717;1260;51160;-68
2023/03/15 11:14:59;;;;;;;;;29.00;22.00;23.90;37.60;;;;;;109694;1256;46322;-69
2023/03/15 11:17:28;;;;;;;;;21.00;20.00;24.00;37.60;;;;;;109620;1256;56763;-67
2023/03/15 11:19:58;;;;;;;;;25.00;22.00;24.00;37.50;;;;;;109646;1257;54353;-68
2023/03/15 11:22:25;;;;;;;;;23.00;21.50;24.00;37.50;;;;;;109718;1255;50168;-65
2023/03/15 11:24:53;;;;;;;;;23.00;19.50;24.10;37.50;;;;;;109816;1257;49853;-70
2023/03/15 11:27:22;;;;;;;;;26.00;22.00;24.10;36.80;;;;;;109852;1255;46183;-68
2023/03/15 11:29:58;;;;;;;;;22.00;20.00;24.20;37.40;;;;;;109731;1255;58731;-68
2023/03/15 11:32:28;;;;;;;;;20.00;19.00;24.30;37.40;;;;;;109732;1257;53738;-68
2023/03/15 11:35:07;;;;;;;;;18.00;17.00;24.40;37.50;;;;;;109709;1260;49562;-64
2023/03/15 11:37:45;;;;;;;;;23.00;20.50;24.60;37.30;;;;;;109630;1256;49849;-66
2023/03/15 11:40:24;;;;;;;;;23.00;19.00;24.80;37.10;;;;;;109687;1258;46004;-70
2023/03/15 11:42:54;;;;;;;;;28.00;23.00;25.00;36.90;;;;;;109671;1261;56797;-68
2023/03/15 11:45:43;;;;;;;;;22.00;21.00;25.10;36.70;;;;;;109599;1259;54917;-72
2023/03/15 11:48:25;;;;;;;;;22.00;21.00;25.30;36.10;;;;;;109851;1260;49595;-73
2023/03/15 11:50:53;;;;;;;;;23.00;21.00;25.50;35.90;;;;;;109697;1260;49898;-70
2023/03/15 11:53:20;;;;;;;;;29.00;22.50;25.70;35.90;;;;;;109690;1259;46179;-73
2023/03/15 11:55:49;;;;;;;;;22.00;21.00;25.80;35.80;;;;;;109925;1259;57029;-65
2023/03/15 11:58:33;;;;;;;;;24.50;23.00;25.90;35.70;;;;;;109804;1260;53737;-65
2023/03/15 12:01:02;;;;;;;;;24.00;23.00;26.00;35.50;;;;;;109797;1259;49822;-65
2023/03/15 12:03:28;;;;;;;;;20.00;19.00;26.10;35.20;;;;;;109888;1255;49724;-68
2023/03/15 12:06:06;;;;;;;;;23.50;21.50;26.10;35.20;;;;;;109717;1259;47045;-66
2023/03/15 12:08:35;;;;;;;;;24.00;20.00;26.20;34.70;;;;;;109801;1257;56995;-65
2023/03/15 12:11:09;;;;;;;;;23.50;22.00;26.20;34.30;;;;;;109714;1259;54253;-70
2023/03/15 12:13:35;;;;;;;;;26.50;22.00;26.30;34.40;;;;;;109655;1259;49213;-67
2023/03/15 12:16:05;;;;;;;;;25.50;24.50;26.40;34.40;;;;;;109858;1259;49626;-68
2023/03/15 12:18:38;;;;;;;;;;;26.40;34.30;;;;;;109757;1260;46164;-68
2023/03/15 12:21:20;;;;;;;;;21.50;19.00;26.40;34.50;;;;;;109668;1258;56573;-67
2023/03/15 12:24:00;;;;;;;;;23.00;22.00;26.40;34.30;;;;;;109558;1255;53493;-68
2023/03/15 12:26:50;;;;;;;;;24.50;22.50;26.40;34.30;;;;;;109652;1260;49623;-68